createdAt,value
2022-11-05T00:00:14.306Z,6
2022-11-05T00:10:15.298Z,5.9
2022-11-05T00:20:15.654Z,5.7
2022-11-05T00:30:16.109Z,5.6
2022-11-05T00:40:16.153Z,5.5
2022-11-05T00:50:16.713Z,5.3
2022-11-05T01:00:17.034Z,5.2
2022-11-05T01:10:18.095Z,5.1
2022-11-05T01:20:18.245Z,4.9
2022-11-05T01:30:19.040Z,4.8
2022-11-05T01:40:19.642Z,4.9
2022-11-05T01:50:20.378Z,4.8
2022-11-05T02:00:21.209Z,5.1
2022-11-05T02:10:21.766Z,5
2022-11-05T02:20:22.027Z,5
2022-11-05T02:30:22.503Z,4.8
2022-11-05T02:40:22.675Z,4.6
2022-11-05T02:50:23.111Z,4.4
2022-11-05T03:00:23.964Z,4.3
2022-11-05T03:10:24.176Z,4.2
2022-11-05T03:20:24.645Z,4.1
2022-11-05T03:30:25.210Z,4
2022-11-05T03:40:25.604Z,4
2022-11-05T03:50:25.753Z,4
2022-11-05T04:00:26.666Z,4.1
2022-11-05T04:10:27.261Z,4
2022-11-05T04:20:28.110Z,4
2022-11-05T04:30:28.379Z,4
2022-11-05T04:40:28.556Z,4
2022-11-05T04:50:28.986Z,4
2022-11-05T05:00:30.092Z,4.1
2022-11-05T05:10:30.557Z,4.1
2022-11-05T05:20:31.221Z,4.2
2022-11-05T05:30:31.811Z,4.3
2022-11-05T05:40:32.766Z,4.1
2022-11-05T05:50:32.937Z,4.1
2022-11-05T06:00:33.478Z,4.3
2022-11-05T06:10:33.852Z,5.1
2022-11-05T06:20:34.644Z,5.3
2022-11-05T06:30:35.033Z,5.4
2022-11-05T06:40:35.505Z,5.4
2022-11-05T06:50:35.989Z,5.4
2022-11-05T07:00:36.588Z,5.5
2022-11-05T07:10:37.561Z,5.6
2022-11-05T07:20:38.159Z,5.8
2022-11-05T07:30:38.639Z,6.1
2022-11-05T07:40:39.634Z,6.2
2022-11-05T07:50:40.600Z,6.4
2022-11-05T08:00:40.909Z,6.6
2022-11-05T08:10:41.701Z,6.8
2022-11-05T08:20:42.198Z,7
2022-11-05T08:30:42.791Z,7.2
2022-11-05T08:50:43.470Z,8.1
2022-11-05T09:00:44.467Z,8.3
2022-11-05T09:10:44.780Z,8.7
2022-11-05T09:20:45.784Z,9.1
2022-11-05T09:30:45.928Z,9.5
2022-11-05T09:40:46.304Z,9.8
2022-11-05T09:50:46.952Z,10.3
2022-11-05T10:00:47.915Z,10.1
2022-11-05T10:10:48.961Z,10.5
2022-11-05T10:11:10.845Z,10.4
2022-11-05T10:20:54.599Z,10.8
2022-11-05T10:30:55.568Z,10.9
2022-11-05T10:50:56.344Z,11.4
2022-11-05T11:00:57.262Z,11
2022-11-05T11:10:57.392Z,10.9
2022-11-05T11:20:57.538Z,11.3
2022-11-05T11:30:58.468Z,11.5
2022-11-05T11:40:59.358Z,11.7
2022-11-05T11:51:00.417Z,11.8
2022-11-05T12:01:01.073Z,12
2022-11-05T12:11:01.754Z,12.1
2022-11-05T12:21:02.858Z,12
2022-11-05T12:31:03.240Z,11.9
2022-11-05T12:41:04.085Z,11.8
2022-11-05T12:51:04.999Z,11.8
2022-11-05T13:01:05.450Z,11.8
2022-11-05T13:11:06.512Z,11.7
2022-11-05T13:21:07.012Z,11.7
2022-11-05T13:31:07.690Z,11.8
2022-11-05T13:41:08.239Z,11.8
2022-11-05T13:51:08.950Z,11.8
2022-11-05T14:01:09.443Z,11.8
2022-11-05T14:31:12.001Z,11.1
2022-11-05T14:41:13.012Z,11.1
2022-11-05T14:51:13.184Z,11
2022-11-05T15:01:13.418Z,11
2022-11-05T15:11:13.853Z,10.9
2022-11-05T15:21:14.878Z,10.8
2022-11-05T15:31:15.682Z,10.8
2022-11-05T15:51:16.779Z,10.6
2022-11-05T16:01:17.604Z,10.5
2022-11-05T16:11:18.208Z,10.5
2022-11-05T16:21:19.164Z,10.4
2022-11-05T16:31:19.321Z,10.3
2022-11-05T16:51:24.801Z,10.2
2022-11-05T17:01:21.773Z,10.2
2022-11-05T17:11:22.159Z,10.2
2022-11-05T17:21:23.185Z,10.3
2022-11-05T17:41:23.724Z,10.3
2022-11-05T17:51:24.555Z,10.3
2022-11-05T18:01:24.803Z,10.3
2022-11-05T18:11:25.726Z,10.4
2022-11-05T18:21:26.034Z,10.4
2022-11-05T18:31:26.924Z,10.4
2022-11-05T18:41:27.885Z,10.5
2022-11-05T18:51:28.574Z,10.5
2022-11-05T19:01:29.166Z,10.6
2022-11-05T19:11:30.143Z,10.6
2022-11-05T19:21:31.196Z,10.6
2022-11-05T19:31:32.212Z,10.6
2022-11-05T19:41:32.394Z,10.5
2022-11-05T19:51:33.163Z,10.5
2022-11-05T20:01:34.173Z,10.4
2022-11-05T20:11:34.963Z,10.3
2022-11-05T20:21:35.873Z,10.3
2022-11-05T20:31:36.454Z,10.3
2022-11-05T20:41:37.308Z,10.2
2022-11-05T20:51:37.433Z,10.1
2022-11-05T21:01:38.409Z,10
2022-11-05T21:11:38.571Z,10
2022-11-05T21:21:41.177Z,9.9
2022-11-05T21:31:39.953Z,9.9
2022-11-05T21:41:40.851Z,9.9
2022-11-05T21:51:41.110Z,9.9
2022-11-05T22:01:42.091Z,9.9
2022-11-05T22:11:42.933Z,10
2022-11-05T22:21:43.246Z,10
2022-11-05T22:31:44.021Z,9.9
2022-11-05T22:51:45.649Z,9.8
2022-11-05T23:01:46.264Z,9.7
2022-11-05T23:11:46.904Z,9.7
2022-11-05T23:21:47.498Z,9.7
2022-11-05T23:31:47.975Z,9.7
2022-11-05T23:41:48.232Z,9.7
